sensor_id;sensor_type;location;lat;lon;timestamp;P1;durP1;ratioP1;P2;durP2;ratioP2
59167;SDS011;44948;55.046;73.266;2023-03-23T00:02:11;7.75;;;1.50;;
59167;SDS011;44948;55.046;73.266;2023-03-23T00:05:14;3.42;;;1.30;;
59167;SDS011;44948;55.046;73.266;2023-03-23T00:08:27;6.85;;;1.85;;
59167;SDS011;44948;55.046;73.266;2023-03-23T00:12:10;4.90;;;1.70;;
59167;SDS011;44948;55.046;73.266;2023-03-23T00:15:16;4.45;;;1.90;;
59167;SDS011;44948;55.046;73.266;2023-03-23T00:18:25;3.67;;;1.70;;
59167;SDS011;44948;55.046;73.266;2023-03-23T00:21:29;4.60;;;1.83;;
59167;SDS011;44948;55.046;73.266;2023-03-23T00:24:37;4.95;;;2.45;;
59167;SDS011;44948;55.046;73.266;2023-03-23T00:27:39;3.78;;;1.88;;
59167;SDS011;44948;55.046;73.266;2023-03-23T00:30:45;4.73;;;1.50;;
59167;SDS011;44948;55.046;73.266;2023-03-23T00:33:47;5.72;;;1.83;;
59167;SDS011;44948;55.046;73.266;2023-03-23T00:36:51;2.17;;;1.10;;
59167;SDS011;44948;55.046;73.266;2023-03-23T00:39:58;4.32;;;1.73;;
59167;SDS011;44948;55.046;73.266;2023-03-23T00:43:02;2.80;;;1.27;;
59167;SDS011;44948;55.046;73.266;2023-03-23T00:46:05;4.43;;;1.95;;
59167;SDS011;44948;55.046;73.266;2023-03-23T00:49:13;6.05;;;1.95;;
59167;SDS011;44948;55.046;73.266;2023-03-23T00:52:26;5.00;;;1.43;;
59167;SDS011;44948;55.046;73.266;2023-03-23T00:55:42;4.93;;;1.77;;
59167;SDS011;44948;55.046;73.266;2023-03-23T00:58:46;3.88;;;1.58;;
59167;SDS011;44948;55.046;73.266;2023-03-23T01:01:48;5.97;;;2.05;;
59167;SDS011;44948;55.046;73.266;2023-03-23T01:04:51;6.82;;;2.22;;
59167;SDS011;44948;55.046;73.266;2023-03-23T01:07:54;5.85;;;1.73;;
59167;SDS011;44948;55.046;73.266;2023-03-23T01:11:03;4.50;;;1.75;;
59167;SDS011;44948;55.046;73.266;2023-03-23T01:14:08;5.80;;;2.20;;
59167;SDS011;44948;55.046;73.266;2023-03-23T01:17:21;4.68;;;1.83;;
59167;SDS011;44948;55.046;73.266;2023-03-23T01:20:23;7.30;;;2.47;;
59167;SDS011;44948;55.046;73.266;2023-03-23T01:23:28;5.97;;;1.80;;
59167;SDS011;44948;55.046;73.266;2023-03-23T01:26:36;5.18;;;2.10;;
59167;SDS011;44948;55.046;73.266;2023-03-23T01:29:39;6.88;;;2.03;;
59167;SDS011;44948;55.046;73.266;2023-03-23T01:32:42;7.28;;;2.40;;
59167;SDS011;44948;55.046;73.266;2023-03-23T01:35:45;8.65;;;3.90;;
59167;SDS011;44948;55.046;73.266;2023-03-23T01:38:48;6.22;;;3.03;;
59167;SDS011;44948;55.046;73.266;2023-03-23T01:41:56;8.02;;;2.47;;
59167;SDS011;44948;55.046;73.266;2023-03-23T01:48:36;8.55;;;2.58;;
59167;SDS011;44948;55.046;73.266;2023-03-23T01:51:46;6.90;;;2.78;;
59167;SDS011;44948;55.046;73.266;2023-03-23T01:55:04;6.88;;;2.35;;
59167;SDS011;44948;55.046;73.266;2023-03-23T01:58:19;6.40;;;2.17;;
59167;SDS011;44948;55.046;73.266;2023-03-23T02:01:32;5.17;;;2.00;;
59167;SDS011;44948;55.046;73.266;2023-03-23T02:04:38;7.28;;;2.63;;
59167;SDS011;44948;55.046;73.266;2023-03-23T02:07:43;5.47;;;1.85;;
59167;SDS011;44948;55.046;73.266;2023-03-23T02:10:47;3.22;;;1.67;;
59167;SDS011;44948;55.046;73.266;2023-03-23T02:13:51;7.38;;;2.38;;
59167;SDS011;44948;55.046;73.266;2023-03-23T02:17:09;7.05;;;1.70;;
59167;SDS011;44948;55.046;73.266;2023-03-23T02:20:31;10.65;;;2.58;;
59167;SDS011;44948;55.046;73.266;2023-03-23T02:37:32;11.85;;;3.08;;
59167;SDS011;44948;55.046;73.266;2023-03-23T02:40:44;4.70;;;2.17;;
59167;SDS011;44948;55.046;73.266;2023-03-23T02:43:54;15.65;;;2.78;;
59167;SDS011;44948;55.046;73.266;2023-03-23T02:46:59;10.88;;;2.53;;
59167;SDS011;44948;55.046;73.266;2023-03-23T02:50:09;10.88;;;5.10;;
59167;SDS011;44948;55.046;73.266;2023-03-23T02:53:16;9.60;;;3.35;;
59167;SDS011;44948;55.046;73.266;2023-03-23T02:56:26;9.15;;;2.65;;
59167;SDS011;44948;55.046;73.266;2023-03-23T02:59:32;5.73;;;2.17;;
59167;SDS011;44948;55.046;73.266;2023-03-23T03:02:46;10.50;;;2.78;;
59167;SDS011;44948;55.046;73.266;2023-03-23T03:22:31;11.98;;;4.63;;
59167;SDS011;44948;55.046;73.266;2023-03-23T03:25:35;9.38;;;3.97;;
59167;SDS011;44948;55.046;73.266;2023-03-23T03:28:41;9.83;;;6.13;;
59167;SDS011;44948;55.046;73.266;2023-03-23T03:31:55;13.38;;;6.00;;
59167;SDS011;44948;55.046;73.266;2023-03-23T03:35:04;8.88;;;4.45;;
59167;SDS011;44948;55.046;73.266;2023-03-23T03:38:09;8.15;;;3.50;;
59167;SDS011;44948;55.046;73.266;2023-03-23T03:41:14;7.65;;;3.10;;
59167;SDS011;44948;55.046;73.266;2023-03-23T03:44:17;7.78;;;3.08;;
59167;SDS011;44948;55.046;73.266;2023-03-23T03:47:20;8.75;;;4.20;;
59167;SDS011;44948;55.046;73.266;2023-03-23T03:50:22;13.90;;;6.10;;
59167;SDS011;44948;55.046;73.266;2023-03-23T03:53:25;16.65;;;5.10;;
59167;SDS011;44948;55.046;73.266;2023-03-23T03:56:28;18.98;;;6.32;;
59167;SDS011;44948;55.046;73.266;2023-03-23T03:59:49;23.27;;;7.18;;
59167;SDS011;44948;55.046;73.266;2023-03-23T04:02:51;40.22;;;13.52;;
59167;SDS011;44948;55.046;73.266;2023-03-23T04:06:22;36.28;;;14.23;;
59167;SDS011;44948;55.046;73.266;2023-03-23T04:09:26;28.33;;;11.07;;
59167;SDS011;44948;55.046;73.266;2023-03-23T04:12:35;32.70;;;13.42;;
59167;SDS011;44948;55.046;73.266;2023-03-23T04:16:10;34.45;;;13.75;;
59167;SDS011;44948;55.046;73.266;2023-03-23T04:19:14;23.92;;;10.48;;
59167;SDS011;44948;55.046;73.266;2023-03-23T04:22:18;21.17;;;7.88;;
59167;SDS011;44948;55.046;73.266;2023-03-23T04:25:21;17.77;;;6.15;;
59167;SDS011;44948;55.046;73.266;2023-03-23T04:28:30;11.32;;;4.63;;
59167;SDS011;44948;55.046;73.266;2023-03-23T04:32:01;10.40;;;4.53;;
59167;SDS011;44948;55.046;73.266;2023-03-23T04:35:11;15.68;;;5.40;;
59167;SDS011;44948;55.046;73.266;2023-03-23T04:38:21;16.67;;;5.70;;
59167;SDS011;44948;55.046;73.266;2023-03-23T04:41:32;12.88;;;5.10;;
59167;SDS011;44948;55.046;73.266;2023-03-23T04:44:55;8.77;;;3.85;;
59167;SDS011;44948;55.046;73.266;2023-03-23T04:48:09;18.33;;;6.93;;
59167;SDS011;44948;55.046;73.266;2023-03-23T04:51:28;12.43;;;4.63;;
59167;SDS011;44948;55.046;73.266;2023-03-23T04:54:49;12.32;;;5.18;;
59167;SDS011;44948;55.046;73.266;2023-03-23T04:57:54;19.20;;;10.98;;
59167;SDS011;44948;55.046;73.266;2023-03-23T05:01:17;28.42;;;10.95;;
59167;SDS011;44948;55.046;73.266;2023-03-23T05:04:29;39.00;;;15.10;;
59167;SDS011;44948;55.046;73.266;2023-03-23T05:07:55;21.48;;;9.70;;
59167;SDS011;44948;55.046;73.266;2023-03-23T05:11:00;27.13;;;10.43;;
59167;SDS011;44948;55.046;73.266;2023-03-23T05:14:18;24.77;;;11.10;;
59167;SDS011;44948;55.046;73.266;2023-03-23T05:17:29;30.10;;;11.25;;
59167;SDS011;44948;55.046;73.266;2023-03-23T05:20:36;27.45;;;12.52;;
59167;SDS011;44948;55.046;73.266;2023-03-23T05:23:44;17.98;;;7.00;;
59167;SDS011;44948;55.046;73.266;2023-03-23T05:26:53;37.92;;;15.02;;
59167;SDS011;44948;55.046;73.266;2023-03-23T05:30:05;10.45;;;3.83;;
59167;SDS011;44948;55.046;73.266;2023-03-23T05:33:21;9.39;;;4.59;;
59167;SDS011;44948;55.046;73.266;2023-03-23T05:36:59;25.35;;;10.57;;
59167;SDS011;44948;55.046;73.266;2023-03-23T05:40:11;15.25;;;6.32;;
59167;SDS011;44948;55.046;73.266;2023-03-23T05:43:26;9.82;;;4.38;;
59167;SDS011;44948;55.046;73.266;2023-03-23T05:46:43;11.82;;;5.47;;
59167;SDS011;44948;55.046;73.266;2023-03-23T05:49:47;7.78;;;3.80;;
59167;SDS011;44948;55.046;73.266;2023-03-23T05:52:57;11.35;;;4.70;;
59167;SDS011;44948;55.046;73.266;2023-03-23T05:56:01;7.15;;;3.67;;
59167;SDS011;44948;55.046;73.266;2023-03-23T05:59:28;7.22;;;3.72;;
59167;SDS011;44948;55.046;73.266;2023-03-23T06:02:33;7.00;;;3.60;;
59167;SDS011;44948;55.046;73.266;2023-03-23T06:05:36;10.23;;;4.07;;
59167;SDS011;44948;55.046;73.266;2023-03-23T06:08:46;9.82;;;3.92;;
59167;SDS011;44948;55.046;73.266;2023-03-23T06:12:06;9.00;;;4.25;;
59167;SDS011;44948;55.046;73.266;2023-03-23T06:15:17;9.82;;;4.25;;
59167;SDS011;44948;55.046;73.266;2023-03-23T06:18:40;19.65;;;4.10;;
59167;SDS011;44948;55.046;73.266;2023-03-23T06:22:20;8.98;;;4.10;;
59167;SDS011;44948;55.046;73.266;2023-03-23T06:25:42;8.48;;;4.07;;
59167;SDS011;44948;55.046;73.266;2023-03-23T06:28:47;7.88;;;3.92;;
59167;SDS011;44948;55.046;73.266;2023-03-23T06:31:51;9.57;;;4.07;;
59167;SDS011;44948;55.046;73.266;2023-03-23T06:35:02;7.18;;;3.83;;
59167;SDS011;44948;55.046;73.266;2023-03-23T06:38:38;9.25;;;4.30;;
59167;SDS011;44948;55.046;73.266;2023-03-23T06:41:41;10.20;;;4.90;;
59167;SDS011;44948;55.046;73.266;2023-03-23T06:44:43;14.15;;;6.00;;
59167;SDS011;44948;55.046;73.266;2023-03-23T06:47:47;16.95;;;7.13;;
59167;SDS011;44948;55.046;73.266;2023-03-23T06:50:50;15.57;;;7.68;;
59167;SDS011;44948;55.046;73.266;2023-03-23T06:53:55;16.95;;;8.30;;
59167;SDS011;44948;55.046;73.266;2023-03-23T06:56:59;10.93;;;6.05;;
59167;SDS011;44948;55.046;73.266;2023-03-23T07:00:03;11.20;;;5.00;;
59167;SDS011;44948;55.046;73.266;2023-03-23T07:03:23;10.18;;;4.78;;
59167;SDS011;44948;55.046;73.266;2023-03-23T07:06:26;8.97;;;4.70;;
59167;SDS011;44948;55.046;73.266;2023-03-23T07:09:33;9.88;;;5.60;;
59167;SDS011;44948;55.046;73.266;2023-03-23T07:12:35;11.50;;;5.40;;
59167;SDS011;44948;55.046;73.266;2023-03-23T07:15:40;8.90;;;4.88;;
59167;SDS011;44948;55.046;73.266;2023-03-23T07:18:43;8.40;;;3.75;;
59167;SDS011;44948;55.046;73.266;2023-03-23T07:21:46;10.82;;;4.38;;
59167;SDS011;44948;55.046;73.266;2023-03-23T07:24:59;9.90;;;4.72;;
59167;SDS011;44948;55.046;73.266;2023-03-23T07:28:07;5.53;;;3.05;;
59167;SDS011;44948;55.046;73.266;2023-03-23T07:31:09;5.30;;;3.13;;
59167;SDS011;44948;55.046;73.266;2023-03-23T07:34:17;5.18;;;2.97;;
59167;SDS011;44948;55.046;73.266;2023-03-23T07:37:32;7.30;;;4.07;;
59167;SDS011;44948;55.046;73.266;2023-03-23T07:40:36;6.82;;;4.10;;
59167;SDS011;44948;55.046;73.266;2023-03-23T07:43:49;5.65;;;2.58;;
59167;SDS011;44948;55.046;73.266;2023-03-23T07:47:06;8.25;;;4.18;;
59167;SDS011;44948;55.046;73.266;2023-03-23T07:50:13;8.57;;;4.22;;
59167;SDS011;44948;55.046;73.266;2023-03-23T07:53:17;6.47;;;3.50;;
59167;SDS011;44948;55.046;73.266;2023-03-23T07:56:29;4.07;;;2.22;;
59167;SDS011;44948;55.046;73.266;2023-03-23T07:59:42;8.48;;;3.63;;
59167;SDS011;44948;55.046;73.266;2023-03-23T08:02:48;4.50;;;2.47;;
59167;SDS011;44948;55.046;73.266;2023-03-23T08:06:28;4.55;;;2.95;;
59167;SDS011;44948;55.046;73.266;2023-03-23T08:09:47;3.95;;;2.30;;
59167;SDS011;44948;55.046;73.266;2023-03-23T08:13:08;8.43;;;3.72;;
59167;SDS011;44948;55.046;73.266;2023-03-23T08:16:35;4.47;;;2.70;;
59167;SDS011;44948;55.046;73.266;2023-03-23T08:20:06;9.60;;;5.63;;
59167;SDS011;44948;55.046;73.266;2023-03-23T08:23:32;5.75;;;3.03;;
59167;SDS011;44948;55.046;73.266;2023-03-23T08:26:53;8.57;;;4.13;;
59167;SDS011;44948;55.046;73.266;2023-03-23T08:29:59;5.00;;;2.20;;
59167;SDS011;44948;55.046;73.266;2023-03-23T08:33:20;3.10;;;1.65;;
59167;SDS011;44948;55.046;73.266;2023-03-23T08:36:23;5.45;;;2.60;;
59167;SDS011;44948;55.046;73.266;2023-03-23T08:39:52;5.95;;;2.20;;
59167;SDS011;44948;55.046;73.266;2023-03-23T08:43:19;9.82;;;4.22;;
59167;SDS011;44948;55.046;73.266;2023-03-23T08:46:25;5.10;;;2.85;;
59167;SDS011;44948;55.046;73.266;2023-03-23T08:49:59;5.50;;;2.58;;
59167;SDS011;44948;55.046;73.266;2023-03-23T08:53:30;7.93;;;3.38;;
59167;SDS011;44948;55.046;73.266;2023-03-23T08:57:04;9.55;;;2.42;;
59167;SDS011;44948;55.046;73.266;2023-03-23T09:00:24;3.15;;;2.05;;
59167;SDS011;44948;55.046;73.266;2023-03-23T09:03:39;5.22;;;1.90;;
59167;SDS011;44948;55.046;73.266;2023-03-23T09:06:58;3.83;;;1.90;;
59167;SDS011;44948;55.046;73.266;2023-03-23T09:10:00;2.70;;;1.50;;
59167;SDS011;44948;55.046;73.266;2023-03-23T09:13:14;3.22;;;1.38;;
59167;SDS011;44948;55.046;73.266;2023-03-23T09:16:16;15.80;;;4.93;;
59167;SDS011;44948;55.046;73.266;2023-03-23T09:19:19;3.00;;;1.40;;
59167;SDS011;44948;55.046;73.266;2023-03-23T09:22:22;7.53;;;1.67;;
59167;SDS011;44948;55.046;73.266;2023-03-23T09:25:26;8.20;;;1.50;;
59167;SDS011;44948;55.046;73.266;2023-03-23T09:28:29;7.00;;;2.50;;
59167;SDS011;44948;55.046;73.266;2023-03-23T09:31:33;3.90;;;1.58;;
59167;SDS011;44948;55.046;73.266;2023-03-23T09:34:38;3.84;;;1.42;;
59167;SDS011;44948;55.046;73.266;2023-03-23T09:37:41;2.83;;;1.35;;
59167;SDS011;44948;55.046;73.266;2023-03-23T09:40:46;2.58;;;0.95;;
59167;SDS011;44948;55.046;73.266;2023-03-23T09:50:24;2.88;;;1.30;;
59167;SDS011;44948;55.046;73.266;2023-03-23T09:53:38;1.77;;;0.90;;
59167;SDS011;44948;55.046;73.266;2023-03-23T09:56:44;2.88;;;1.67;;
59167;SDS011;44948;55.046;73.266;2023-03-23T10:00:52;1.88;;;0.93;;
59167;SDS011;44948;55.046;73.266;2023-03-23T10:03:31;5.32;;;2.40;;
59167;SDS011;44948;55.046;73.266;2023-03-23T10:06:42;5.30;;;2.10;;
59167;SDS011;44948;55.046;73.266;2023-03-23T10:09:46;8.43;;;2.05;;
59167;SDS011;44948;55.046;73.266;2023-03-23T10:13:09;5.20;;;1.60;;
59167;SDS011;44948;55.046;73.266;2023-03-23T10:16:31;2.37;;;1.00;;
59167;SDS011;44948;55.046;73.266;2023-03-23T10:19:57;2.08;;;0.93;;
59167;SDS011;44948;55.046;73.266;2023-03-23T10:29:41;5.13;;;1.92;;
59167;SDS011;44948;55.046;73.266;2023-03-23T10:32:51;5.07;;;1.83;;
59167;SDS011;44948;55.046;73.266;2023-03-23T10:36:10;4.85;;;2.42;;
59167;SDS011;44948;55.046;73.266;2023-03-23T10:39:33;4.03;;;1.67;;
59167;SDS011;44948;55.046;73.266;2023-03-23T10:42:50;3.28;;;0.90;;
59167;SDS011;44948;55.046;73.266;2023-03-23T10:46:03;3.47;;;1.17;;
59167;SDS011;44948;55.046;73.266;2023-03-23T10:49:26;6.15;;;2.25;;
59167;SDS011;44948;55.046;73.266;2023-03-23T10:52:37;10.05;;;1.90;;
59167;SDS011;44948;55.046;73.266;2023-03-23T10:55:41;3.53;;;1.70;;
59167;SDS011;44948;55.046;73.266;2023-03-23T10:58:48;2.42;;;1.15;;
59167;SDS011;44948;55.046;73.266;2023-03-23T11:01:52;3.45;;;1.42;;
59167;SDS011;44948;55.046;73.266;2023-03-23T11:05:00;1.75;;;1.00;;
59167;SDS011;44948;55.046;73.266;2023-03-23T11:08:14;1.60;;;1.00;;
59167;SDS011;44948;55.046;73.266;2023-03-23T11:11:26;1.33;;;0.90;;
59167;SDS011;44948;55.046;73.266;2023-03-23T11:14:36;1.20;;;0.80;;
59167;SDS011;44948;55.046;73.266;2023-03-23T11:17:40;1.33;;;0.70;;
59167;SDS011;44948;55.046;73.266;2023-03-23T11:20:44;1.17;;;0.60;;
59167;SDS011;44948;55.046;73.266;2023-03-23T11:23:54;1.20;;;0.63;;
59167;SDS011;44948;55.046;73.266;2023-03-23T11:27:00;1.43;;;0.90;;
59167;SDS011;44948;55.046;73.266;2023-03-23T11:30:25;1.85;;;1.05;;
59167;SDS011;44948;55.046;73.266;2023-03-23T11:33:45;1.02;;;0.65;;
59167;SDS011;44948;55.046;73.266;2023-03-23T11:36:58;6.57;;;1.50;;
59167;SDS011;44948;55.046;73.266;2023-03-23T11:40:19;5.45;;;1.85;;
59167;SDS011;44948;55.046;73.266;2023-03-23T11:43:24;2.40;;;1.20;;
59167;SDS011;44948;55.046;73.266;2023-03-23T11:47:00;4.93;;;1.80;;
59167;SDS011;44948;55.046;73.266;2023-03-23T11:50:17;13.88;;;1.60;;
59167;SDS011;44948;55.046;73.266;2023-03-23T11:54:09;3.77;;;1.53;;
59167;SDS011;44948;55.046;73.266;2023-03-23T11:57:08;3.50;;;1.30;;
59167;SDS011;44948;55.046;73.266;2023-03-23T12:00:18;5.80;;;1.80;;
59167;SDS011;44948;55.046;73.266;2023-03-23T12:03:22;1.77;;;0.90;;
59167;SDS011;44948;55.046;73.266;2023-03-23T12:07:21;7.30;;;1.63;;
59167;SDS011;44948;55.046;73.266;2023-03-23T12:14:08;2.88;;;0.98;;
59167;SDS011;44948;55.046;73.266;2023-03-23T12:31:19;2.50;;;1.08;;
59167;SDS011;44948;55.046;73.266;2023-03-23T12:34:43;3.83;;;1.25;;
59167;SDS011;44948;55.046;73.266;2023-03-23T12:38:19;2.67;;;1.05;;
59167;SDS011;44948;55.046;73.266;2023-03-23T12:45:13;9.43;;;3.95;;
59167;SDS011;44948;55.046;73.266;2023-03-23T12:48:28;6.00;;;2.23;;
59167;SDS011;44948;55.046;73.266;2023-03-23T12:55:17;7.18;;;2.97;;
59167;SDS011;44948;55.046;73.266;2023-03-23T12:58:25;6.70;;;3.15;;
59167;SDS011;44948;55.046;73.266;2023-03-23T13:01:40;5.88;;;3.05;;
59167;SDS011;44948;55.046;73.266;2023-03-23T13:08:30;9.05;;;4.68;;
59167;SDS011;44948;55.046;73.266;2023-03-23T13:11:40;21.65;;;10.35;;
59167;SDS011;44948;55.046;73.266;2023-03-23T13:18:11;22.33;;;8.98;;
59167;SDS011;44948;55.046;73.266;2023-03-23T13:21:32;15.38;;;6.95;;
59167;SDS011;44948;55.046;73.266;2023-03-23T13:24:51;31.00;;;11.77;;
59167;SDS011;44948;55.046;73.266;2023-03-23T13:27:58;121.10;;;36.80;;
59167;SDS011;44948;55.046;73.266;2023-03-23T13:31:13;65.03;;;24.85;;
59167;SDS011;44948;55.046;73.266;2023-03-23T13:37:27;85.47;;;37.45;;
59167;SDS011;44948;55.046;73.266;2023-03-23T13:40:40;67.43;;;32.92;;
59167;SDS011;44948;55.046;73.266;2023-03-23T13:43:45;76.00;;;37.10;;
59167;SDS011;44948;55.046;73.266;2023-03-23T13:46:55;45.29;;;20.86;;
59167;SDS011;44948;55.046;73.266;2023-03-23T13:50:00;28.83;;;10.88;;
59167;SDS011;44948;55.046;73.266;2023-03-23T13:53:42;31.88;;;13.73;;
59167;SDS011;44948;55.046;73.266;2023-03-23T14:00:09;34.28;;;16.20;;
59167;SDS011;44948;55.046;73.266;2023-03-23T14:03:19;22.42;;;9.55;;
59167;SDS011;44948;55.046;73.266;2023-03-23T14:06:32;13.00;;;6.80;;
59167;SDS011;44948;55.046;73.266;2023-03-23T14:09:41;12.80;;;5.75;;
59167;SDS011;44948;55.046;73.266;2023-03-23T14:12:48;42.33;;;17.83;;
59167;SDS011;44948;55.046;73.266;2023-03-23T14:16:04;21.30;;;9.45;;
59167;SDS011;44948;55.046;73.266;2023-03-23T14:19:18;19.23;;;10.88;;
59167;SDS011;44948;55.046;73.266;2023-03-23T14:22:31;91.93;;;41.45;;
59167;SDS011;44948;55.046;73.266;2023-03-23T14:25:35;47.50;;;19.70;;
59167;SDS011;44948;55.046;73.266;2023-03-23T14:28:39;99.57;;;34.05;;
59167;SDS011;44948;55.046;73.266;2023-03-23T14:31:43;73.60;;;26.52;;
59167;SDS011;44948;55.046;73.266;2023-03-23T14:34:56;76.28;;;22.10;;
59167;SDS011;44948;55.046;73.266;2023-03-23T14:37:58;38.25;;;13.35;;
59167;SDS011;44948;55.046;73.266;2023-03-23T14:41:03;38.78;;;13.73;;
59167;SDS011;44948;55.046;73.266;2023-03-23T14:44:07;50.45;;;15.82;;
59167;SDS011;44948;55.046;73.266;2023-03-23T14:47:34;48.45;;;14.45;;
59167;SDS011;44948;55.046;73.266;2023-03-23T14:50:41;38.78;;;13.60;;
59167;SDS011;44948;55.046;73.266;2023-03-23T14:53:50;86.45;;;25.63;;
59167;SDS011;44948;55.046;73.266;2023-03-23T14:56:55;58.03;;;19.25;;
59167;SDS011;44948;55.046;73.266;2023-03-23T14:59:57;49.05;;;17.77;;
59167;SDS011;44948;55.046;73.266;2023-03-23T15:03:01;85.88;;;27.85;;
59167;SDS011;44948;55.046;73.266;2023-03-23T15:06:09;27.30;;;13.30;;
59167;SDS011;44948;55.046;73.266;2023-03-23T15:09:17;25.42;;;9.63;;
59167;SDS011;44948;55.046;73.266;2023-03-23T15:12:24;14.30;;;7.35;;
59167;SDS011;44948;55.046;73.266;2023-03-23T15:15:32;12.77;;;6.28;;
59167;SDS011;44948;55.046;73.266;2023-03-23T15:18:37;19.85;;;7.85;;
59167;SDS011;44948;55.046;73.266;2023-03-23T15:25:09;62.33;;;20.55;;
59167;SDS011;44948;55.046;73.266;2023-03-23T15:28:21;18.30;;;7.13;;
59167;SDS011;44948;55.046;73.266;2023-03-23T15:31:29;17.45;;;7.88;;
59167;SDS011;44948;55.046;73.266;2023-03-23T15:34:36;36.65;;;11.57;;
59167;SDS011;44948;55.046;73.266;2023-03-23T15:37:42;91.53;;;24.20;;
59167;SDS011;44948;55.046;73.266;2023-03-23T15:40:51;94.15;;;26.95;;
59167;SDS011;44948;55.046;73.266;2023-03-23T15:43:56;113.90;;;25.90;;
59167;SDS011;44948;55.046;73.266;2023-03-23T15:47:12;89.55;;;21.55;;
59167;SDS011;44948;55.046;73.266;2023-03-23T15:50:20;75.85;;;19.65;;
59167;SDS011;44948;55.046;73.266;2023-03-23T15:53:36;54.20;;;14.90;;
59167;SDS011;44948;55.046;73.266;2023-03-23T15:56:40;41.00;;;14.93;;
59167;SDS011;44948;55.046;73.266;2023-03-23T15:59:43;85.80;;;24.33;;
59167;SDS011;44948;55.046;73.266;2023-03-23T16:02:49;24.02;;;9.07;;
59167;SDS011;44948;55.046;73.266;2023-03-23T16:05:58;26.92;;;9.80;;
59167;SDS011;44948;55.046;73.266;2023-03-23T16:09:00;33.63;;;11.93;;
59167;SDS011;44948;55.046;73.266;2023-03-23T16:12:04;33.80;;;13.23;;
59167;SDS011;44948;55.046;73.266;2023-03-23T16:15:07;41.83;;;12.73;;
59167;SDS011;44948;55.046;73.266;2023-03-23T16:18:19;53.05;;;18.90;;
59167;SDS011;44948;55.046;73.266;2023-03-23T16:21:32;96.28;;;33.90;;
59167;SDS011;44948;55.046;73.266;2023-03-23T16:24:35;115.82;;;41.70;;
59167;SDS011;44948;55.046;73.266;2023-03-23T16:27:38;54.92;;;23.38;;
59167;SDS011;44948;55.046;73.266;2023-03-23T16:30:42;74.80;;;28.75;;
59167;SDS011;44948;55.046;73.266;2023-03-23T16:33:45;61.00;;;24.33;;
59167;SDS011;44948;55.046;73.266;2023-03-23T16:36:48;44.08;;;20.42;;
59167;SDS011;44948;55.046;73.266;2023-03-23T16:39:50;56.83;;;24.17;;
59167;SDS011;44948;55.046;73.266;2023-03-23T16:42:52;60.90;;;24.58;;
59167;SDS011;44948;55.046;73.266;2023-03-23T16:45:55;62.55;;;24.85;;
59167;SDS011;44948;55.046;73.266;2023-03-23T16:48:58;49.78;;;21.23;;
59167;SDS011;44948;55.046;73.266;2023-03-23T16:52:01;60.72;;;27.00;;
59167;SDS011;44948;55.046;73.266;2023-03-23T16:55:03;61.45;;;28.13;;
59167;SDS011;44948;55.046;73.266;2023-03-23T16:58:07;62.03;;;25.98;;
59167;SDS011;44948;55.046;73.266;2023-03-23T17:01:09;46.72;;;21.60;;
59167;SDS011;44948;55.046;73.266;2023-03-23T17:04:12;53.42;;;21.40;;
59167;SDS011;44948;55.046;73.266;2023-03-23T17:07:16;34.55;;;15.77;;
59167;SDS011;44948;55.046;73.266;2023-03-23T17:10:18;30.53;;;14.47;;
59167;SDS011;44948;55.046;73.266;2023-03-23T17:13:21;18.02;;;8.50;;
59167;SDS011;44948;55.046;73.266;2023-03-23T17:16:26;30.75;;;11.85;;
59167;SDS011;44948;55.046;73.266;2023-03-23T17:19:28;41.50;;;13.98;;
59167;SDS011;44948;55.046;73.266;2023-03-23T17:22:31;44.15;;;15.63;;
59167;SDS011;44948;55.046;73.266;2023-03-23T17:25:35;34.97;;;12.60;;
59167;SDS011;44948;55.046;73.266;2023-03-23T17:28:43;37.30;;;13.95;;
59167;SDS011;44948;55.046;73.266;2023-03-23T17:31:45;52.03;;;19.65;;
59167;SDS011;44948;55.046;73.266;2023-03-23T17:34:49;63.33;;;22.08;;
59167;SDS011;44948;55.046;73.266;2023-03-23T17:37:52;41.80;;;15.88;;
59167;SDS011;44948;55.046;73.266;2023-03-23T17:40:55;40.80;;;17.55;;
59167;SDS011;44948;55.046;73.266;2023-03-23T17:44:00;37.58;;;16.90;;
59167;SDS011;44948;55.046;73.266;2023-03-23T17:47:05;38.70;;;16.20;;
59167;SDS011;44948;55.046;73.266;2023-03-23T17:50:17;31.48;;;13.13;;
59167;SDS011;44948;55.046;73.266;2023-03-23T17:53:20;35.17;;;15.48;;
59167;SDS011;44948;55.046;73.266;2023-03-23T17:56:22;34.88;;;14.95;;
59167;SDS011;44948;55.046;73.266;2023-03-23T17:59:34;48.47;;;21.58;;
59167;SDS011;44948;55.046;73.266;2023-03-23T18:02:46;37.80;;;15.38;;
59167;SDS011;44948;55.046;73.266;2023-03-23T18:05:56;45.53;;;14.98;;
59167;SDS011;44948;55.046;73.266;2023-03-23T18:08:59;39.67;;;13.98;;
59167;SDS011;44948;55.046;73.266;2023-03-23T18:12:03;24.25;;;8.82;;
59167;SDS011;44948;55.046;73.266;2023-03-23T18:15:06;23.48;;;10.15;;
59167;SDS011;44948;55.046;73.266;2023-03-23T18:18:10;21.02;;;11.02;;
59167;SDS011;44948;55.046;73.266;2023-03-23T18:21:12;43.50;;;12.75;;
59167;SDS011;44948;55.046;73.266;2023-03-23T18:24:14;36.33;;;9.70;;
59167;SDS011;44948;55.046;73.266;2023-03-23T18:27:27;22.27;;;9.55;;
59167;SDS011;44948;55.046;73.266;2023-03-23T18:30:29;18.33;;;8.45;;
59167;SDS011;44948;55.046;73.266;2023-03-23T18:33:32;26.70;;;10.25;;
59167;SDS011;44948;55.046;73.266;2023-03-23T18:36:38;25.90;;;11.50;;
59167;SDS011;44948;55.046;73.266;2023-03-23T18:39:40;31.05;;;13.68;;
59167;SDS011;44948;55.046;73.266;2023-03-23T18:42:43;27.20;;;12.00;;
59167;SDS011;44948;55.046;73.266;2023-03-23T18:45:49;24.40;;;8.63;;
59167;SDS011;44948;55.046;73.266;2023-03-23T18:48:58;23.55;;;8.10;;
59167;SDS011;44948;55.046;73.266;2023-03-23T18:52:00;19.42;;;8.82;;
59167;SDS011;44948;55.046;73.266;2023-03-23T18:55:03;26.80;;;10.32;;
59167;SDS011;44948;55.046;73.266;2023-03-23T18:58:06;28.08;;;10.85;;
59167;SDS011;44948;55.046;73.266;2023-03-23T19:01:11;30.90;;;13.23;;
59167;SDS011;44948;55.046;73.266;2023-03-23T19:04:19;45.47;;;16.08;;
59167;SDS011;44948;55.046;73.266;2023-03-23T19:07:27;54.70;;;20.45;;
59167;SDS011;44948;55.046;73.266;2023-03-23T19:10:29;51.00;;;19.85;;
59167;SDS011;44948;55.046;73.266;2023-03-23T19:13:38;45.65;;;17.90;;
59167;SDS011;44948;55.046;73.266;2023-03-23T19:16:41;38.58;;;15.45;;
59167;SDS011;44948;55.046;73.266;2023-03-23T19:19:53;34.47;;;13.88;;
59167;SDS011;44948;55.046;73.266;2023-03-23T19:22:56;29.55;;;12.00;;
59167;SDS011;44948;55.046;73.266;2023-03-23T19:25:58;43.67;;;15.77;;
59167;SDS011;44948;55.046;73.266;2023-03-23T19:29:01;36.03;;;13.93;;
59167;SDS011;44948;55.046;73.266;2023-03-23T19:32:03;35.00;;;14.10;;
59167;SDS011;44948;55.046;73.266;2023-03-23T19:35:07;30.20;;;11.98;;
59167;SDS011;44948;55.046;73.266;2023-03-23T19:38:10;25.23;;;10.15;;
59167;SDS011;44948;55.046;73.266;2023-03-23T19:41:25;19.33;;;7.57;;
59167;SDS011;44948;55.046;73.266;2023-03-23T19:44:28;17.58;;;7.57;;
59167;SDS011;44948;55.046;73.266;2023-03-23T19:47:31;20.60;;;8.73;;
59167;SDS011;44948;55.046;73.266;2023-03-23T19:50:39;18.83;;;8.53;;
59167;SDS011;44948;55.046;73.266;2023-03-23T19:53:41;20.08;;;9.00;;
59167;SDS011;44948;55.046;73.266;2023-03-23T19:56:49;21.63;;;9.55;;
59167;SDS011;44948;55.046;73.266;2023-03-23T19:59:52;20.75;;;8.55;;
59167;SDS011;44948;55.046;73.266;2023-03-23T20:02:54;20.25;;;7.85;;